x

Buoy I01 - Eastern Maine Shelf (44034) Wave Buoy

8:04 - Tue 28th Jun 2016 All times are EDT. -4 hours from GMT.

  • Sig Wave height 2.6ft
  • Peak Period 8s
  • Wind
    11mph, 13mph gusts
  • Sea Temp 53°f
  • Air Temp 56°f
  • Sea Pressure 1015.4mb
  • Buoy I01 - Eastern Maine Shelf
  • Buoy I01 - Eastern Maine Shelf

More Historic Weather Station data

Upgrade to MSW Pro to gain access to the past 30 days of data for over 8000 Wavebouys and Weather Stations around the globe.

Join Pro

Comparision Forecast

View Surf forecast
   
mar. 06/28 8:04 2.5ft 8s 11 13 mph 1015.4mb 53f 56f
7:04 2.5ft 8s 13 16 mph 1014.7mb 53f 56f
6:04 2.5ft 8s 11 13 mph 1014.9mb 53f 56f
4:04 3ft 8s 18 20 mph 1015.4mb 53f 57f
3:04 3ft 5s 13 16 mph 1015.9mb 53f 56f
2:04 3.5ft 5s 13 16 mph 1016.4mb 53f 57f
1:04 3.5ft 5s 11 13 mph 1016.9mb 53f 57f
12:04 3.5ft 5s 13 16 mph 1017.1mb 53f 57f
11:04 4ft 6s 13 16 mph 1017mb 53f 57f
10:04 4ft 6s 13 16 mph 1016.9mb 53f 56f
9:04 4ft 6s 13 16 mph 1016.7mb 53f 57f
8:04 4.5ft 8s 16 18 mph 1016.5mb 53f 57f
7:04 4.5ft 5s 16 18 mph 1016mb 53f 56f
6:04 4.5ft 6s 20 22 mph 1015.7mb 53f 57f
5:04 5ft 6s 18 20 mph 1015.4mb 53f 56f
4:04 5ft 5s 18 20 mph 1015mb 53f 57f
3:04 4.5ft 6s 20 22 mph 1015mb 53f 58f
2:04 5ft 6s 20 22 mph 1015.4mb 53f 57f
1:04 5ft 5s 20 22 mph 1015.7mb 53f 58f
12:04 5ft 5s 18 22 mph 1015.9mb 53f 58f
lun. 06/27 11:04 4ft 5s 16 20 mph 1016.3mb 53f 57f
10:04 4.5ft 6s 18 20 mph 1016.5mb 53f 56f
9:04 4.5ft 5s 16 20 mph 1016.6mb 54f 56f
8:04 4.5ft 5s 18 20 mph 1016.2mb 51f 57f
7:04 5ft 5s 20 22 mph 1016.4mb 51f 58f
6:04 4.5ft 5s 20 22 mph 1016.5mb 52f 57f
5:04 4ft 5s 20 22 mph 1016.5mb 53f 58f
4:04 3.5ft 6s 20 22 mph 1016.3mb 54f 58f
3:04 3.5ft 5s 13 16 mph 1016.6mb 54f 58f
12:04 3ft 5s 13 16 mph 1017.9mb 54f 57f
11:04 3ft 8s 13 16 mph 1018.1mb 54f 57f
10:04 3ft 8s 13
mph
1018.3mb 53f 56f
9:04 3.5ft 8s 13 16 mph 1018.4mb 53f 56f
8:04 3ft 8s 13 16 mph 1018.4mb 53f 56f
7:04 3.5ft 8s 11 13 mph 1018.6mb 54f 56f
6:04 2.5ft 8s 7 9 mph 1018.6mb 54f 56f
5:04 2.5ft 8s 4 7 mph 1018.5mb 53f 55f
4:04 2ft 8s 4 7 mph 1018.2mb 54f 55f
3:04 2ft 8s 4
mph
1018.4mb 54f 55f
2:04 2ft 8s 4 7 mph 1018.6mb 54f 55f
1:04 1.6ft 8s 4
mph
1019mb 53f 55f
12:04 1.6ft 8s 4 7 mph 1019.6mb 54f 56f
dim. 06/26 11:04 1.6ft 8s 7
mph
1020mb 54f 56f
10:04 1.6ft 8s 7 9 mph 1020.2mb 54f 56f
9:04 1.6ft 8s 4 7 mph 1020.5mb 55f 57f
8:04 1.3ft 6s 7 9 mph 1020.5mb 55f 58f
7:04 1.3ft 8s 9 11 mph 1020.7mb 55f 59f
6:04 1.6ft 8s 11
mph
1021mb 56f 58f
5:04 1.6ft 8s 9 11 mph 1021.7mb 56f 58f
4:04 1.6ft 6s 9 11 mph 1021.8mb 56f 57f
3:04 1.6ft 6s 11
mph
1022.2mb 57f 58f
2:04 1.6ft 8s 9 11 mph 1023mb 57f 58f
1:04 1.6ft 8s 9
mph
1023.3mb 56f 58f
12:04 2ft 8s 7
mph
1023.3mb 54f 57f
11:04 2ft 8s 4 7 mph 1023.3mb 54f 57f
10:04 1.6ft 8s 2 4 mph 1023.5mb 54f 58f
9:04 1.6ft 8s 2 4 mph 1023.8mb 54f 61f
8:04 2ft 8s 4
mph
1023.7mb 54f 58f
7:04 2ft 8s 4
mph
1023.6mb 54f 57f
6:04 2.5ft 8s 2
mph
1023.5mb 55f 57f
5:04 2.5ft 8s 4
mph
1023.7mb 53f 54f
4:04 2ft 8s 7 9 mph 1023.1mb 53f 55f
3:04 2ft 8s 4 7 mph 1022.5mb 53f 55f
2:04 2ft 8s 4
mph
1022.1mb 53f 55f
1:04 2ft 8s 4 7 mph 1022.5mb 54f 55f
12:04 2.5ft 8s 4
mph
1022.9mb 55f 56f
sam. 06/25 11:04 2.5ft 8s 7
mph
1023.3mb 55f 56f
10:04 2.5ft 8s 7 9 mph 1023.5mb 55f 57f
9:04 2.5ft 8s 4
mph
1022.9mb 56f 57f
8:04 2.5ft 8s 4 7 mph 1022.5mb 56f 58f
7:04 2.5ft 8s 4
mph
1022.2mb 55f 59f
6:04 3ft 8s 4 7 mph 1022.4mb 56f 59f
5:04 3.5ft 8s 4
mph
1022.5mb 54f 60f
4:04 3ft 8s 4
mph
1022.7mb 52f 59f
3:04 2.5ft 8s 4
mph
1023.2mb 55f 58f
2:04 3.5ft 8s 7
mph
1023.3mb 53f 58f
1:04 2.5ft 8s 4
mph
1023.3mb 55f 58f
12:04 3ft 8s 4 7 mph 1023.8mb 54f 57f
11:04 3.5ft 8s 4 7 mph 1024.1mb 54f 57f
10:04 3ft 8s 4 7 mph 1024mb 53f 57f
9:04 3ft 8s 4
mph
1023.8mb 53f 55f
8:04 3ft 8s 7 9 mph 1023.7mb 53f 55f
7:04 2.5ft 11s 7 9 mph 1023.3mb 52f 55f
6:04 2ft 8s 4
mph
1022.6mb 53f 55f
5:04 2ft 6s 7 9 mph 1021.9mb 53f 53f
4:04 2.5ft 8s 4
mph
1021.4mb 53f 53f
3:04 2ft 8s 4
mph
1021.4mb 53f 53f
2:04 2ft 6s 4
mph
1021.2mb 53f 54f